Time;durP1;ratioP1;P1;durP2;ratioP2;P2;SDS_P1;SDS_P2;PMS_P1;PMS_P2;Temp;Humidity;BMP_temperature;BMP_pressure;BME280_temperature;BME280_humidity;BME280_pressure;Samples;Min_cycle;Max_cycle;Signal;HPM_P1;HPM_P2
2022/12/29 00:00:11;;;;;;;2.50;1.43;;;8.70;99.90;;;;;;6122994;23;20411;-56
2022/12/29 00:02:38;;;;;;;1.40;1.13;;;8.70;99.90;;;;;;6122999;23;20411;-56
2022/12/29 00:05:06;;;;;;;1.40;1.03;;;8.70;99.90;;;;;;6121254;23;20450;-57
2022/12/29 00:07:33;;;;;;;1.83;1.17;;;8.70;99.90;;;;;;6121836;23;20396;-57
2022/12/29 00:10:00;;;;;;;1.67;1.30;;;8.70;99.90;;;;;;6121796;23;20411;-59
2022/12/29 00:15:36;;;;;;;4.70;2.00;;;8.70;99.90;;;;;;6121550;23;20423;-61
2022/12/29 00:18:00;;;;;;;1.70;1.33;;;8.80;99.90;;;;;;6122748;23;20402;-60
2022/12/29 00:36:57;;;;;;;1.70;1.20;;;8.90;99.90;;;;;;6123955;23;20392;-59
2022/12/29 00:44:54;;;;;;;2.60;1.90;;;9.00;99.90;;;;;;6114223;23;20411;-59
2022/12/29 00:47:22;;;;;;;1.37;1.20;;;9.00;99.90;;;;;;6123497;23;20404;-59
2022/12/29 00:49:48;;;;;;;2.83;1.30;;;9.00;99.90;;;;;;6122749;23;20443;-58
2022/12/29 00:52:15;;;;;;;2.07;1.60;;;9.00;99.90;;;;;;6122957;23;20398;-59
2022/12/29 00:54:47;;;;;;;1.80;1.20;;;9.00;99.90;;;;;;6123090;23;20434;-61
2022/12/29 00:57:16;;;;;;;1.70;1.60;;;9.00;99.90;;;;;;6122673;23;20388;-58
2022/12/29 00:59:43;;;;;;;1.87;1.30;;;9.00;99.90;;;;;;6122940;23;20419;-59
2022/12/29 01:02:11;;;;;;;2.07;1.40;;;9.00;99.90;;;;;;6122902;23;20396;-63
2022/12/29 01:04:39;;;;;;;1.93;1.43;;;9.00;99.90;;;;;;6122521;23;20472;-62
2022/12/29 01:07:06;;;;;;;2.13;1.90;;;9.00;99.90;;;;;;6121935;23;20443;-55
2022/12/29 01:12:39;;;;;;;2.53;1.40;;;9.00;99.90;;;;;;6120363;23;20392;-58
2022/12/29 01:15:05;;;;;;;1.47;1.23;;;8.90;99.90;;;;;;6121186;23;20428;-60
2022/12/29 01:17:32;;;;;;;1.70;1.27;;;8.90;99.90;;;;;;6112605;23;20897;-59
2022/12/29 01:20:01;;;;;;;1.97;1.40;;;8.90;99.90;;;;;;6120936;23;20431;-58
2022/12/29 01:22:28;;;;;;;1.53;1.07;;;9.00;99.90;;;;;;6120451;23;20388;-59
2022/12/29 01:24:54;;;;;;;1.60;1.27;;;8.90;99.90;;;;;;6114367;23;20434;-59
2022/12/29 01:27:21;;;;;;;1.50;1.13;;;9.00;99.90;;;;;;6118931;23;20407;-61
2022/12/29 01:29:48;;;;;;;1.33;1.23;;;8.90;99.90;;;;;;6115098;23;20468;-58
2022/12/29 01:32:15;;;;;;;1.53;1.37;;;9.00;99.90;;;;;;6117106;23;20403;-58
2022/12/29 01:34:42;;;;;;;3.80;1.50;;;9.00;99.90;;;;;;6116919;23;20424;-60
2022/12/29 01:37:10;;;;;;;6.27;1.70;;;9.00;99.90;;;;;;6123600;23;20388;-57
2022/12/29 01:39:39;;;;;;;3.20;1.30;;;9.10;99.90;;;;;;6122507;23;20403;-55
2022/12/29 01:42:06;;;;;;;1.53;1.23;;;9.00;99.90;;;;;;6122845;23;20403;-55
2022/12/29 01:44:52;;;;;;;1.37;0.90;;;9.10;99.90;;;;;;6121007;23;20474;-60
2022/12/29 01:47:35;;;;;;;1.60;1.50;;;9.10;99.90;;;;;;6121064;23;20439;-58
2022/12/29 01:50:07;;;;;;;2.73;1.90;;;9.10;99.90;;;;;;6121095;23;20419;-58
2022/12/29 01:52:39;;;;;;;1.80;1.70;;;9.10;99.90;;;;;;6120919;23;20392;-55
2022/12/29 01:55:09;;;;;;;1.77;1.03;;;9.00;99.90;;;;;;6122477;23;20464;-59
2022/12/29 01:57:40;;;;;;;1.30;1.10;;;9.00;99.90;;;;;;6122763;23;20403;-59
2022/12/29 02:00:10;;;;;;;2.60;1.57;;;9.00;99.90;;;;;;6121903;23;20431;-59
2022/12/29 02:02:38;;;;;;;1.30;1.10;;;8.90;99.90;;;;;;6120866;23;20388;-59
2022/12/29 02:05:12;;;;;;;2.60;1.50;;;8.90;99.90;;;;;;6115082;23;20874;-59
2022/12/29 02:07:41;;;;;;;1.30;1.20;;;8.80;99.90;;;;;;6113378;23;20403;-58
2022/12/29 02:10:08;;;;;;;1.87;1.37;;;8.90;99.90;;;;;;6120852;23;20399;-57
2022/12/29 02:12:35;;;;;;;1.93;1.10;;;8.80;99.90;;;;;;6120427;23;20400;-58
2022/12/29 02:15:04;;;;;;;1.30;1.20;;;8.80;99.90;;;;;;6112037;23;20418;-57
2022/12/29 02:17:54;;;;;;;1.30;1.00;;;8.80;99.90;;;;;;6121758;23;20412;-59
2022/12/29 02:20:51;;;;;;;3.10;1.20;;;8.80;99.90;;;;;;6120157;23;20387;-59
2022/12/29 02:23:49;;;;;;;1.10;1.00;;;8.90;99.90;;;;;;6070945;23;20408;-59
2022/12/29 02:26:50;;;;;;;1.37;1.27;;;8.90;99.90;;;;;;6119055;23;20458;-58
2022/12/29 02:29:54;;;;;;;2.50;1.60;;;8.90;99.90;;;;;;6120825;23;20407;-59
2022/12/29 02:32:32;;;;;;;2.10;1.23;;;8.90;99.90;;;;;;6119834;23;20443;-58
2022/12/29 02:35:05;;;;;;;4.17;1.10;;;9.00;99.90;;;;;;6119876;23;20376;-60
2022/12/29 02:37:41;;;;;;;2.50;1.17;;;9.00;99.90;;;;;;6119811;23;20392;-60
2022/12/29 02:40:19;;;;;;;2.80;1.47;;;9.00;99.90;;;;;;6119343;23;20384;-59
2022/12/29 02:42:51;;;;;;;1.87;1.50;;;9.10;99.90;;;;;;6119379;23;20384;-60
2022/12/29 02:45:27;;;;;;;1.90;1.33;;;9.10;99.90;;;;;;6108726;23;20402;-59
2022/12/29 02:48:04;;;;;;;1.63;1.10;;;9.10;99.90;;;;;;6120239;23;20387;-56
2022/12/29 02:50:35;;;;;;;1.93;1.30;;;9.20;99.90;;;;;;6119493;23;20399;-59
2022/12/29 02:53:06;;;;;;;2.33;1.40;;;9.20;99.90;;;;;;6119853;23;20388;-59
2022/12/29 02:55:32;;;;;;;2.73;1.57;;;9.30;99.90;;;;;;6119426;23;20419;-60
2022/12/29 02:58:17;;;;;;;1.40;1.10;;;9.30;99.90;;;;;;6120181;23;20387;-60
2022/12/29 03:00:57;;;;;;;2.57;1.70;;;9.40;99.90;;;;;;6120075;23;20388;-56
2022/12/29 03:03:39;;;;;;;3.00;1.30;;;9.40;99.90;;;;;;6121814;23;20376;-59
2022/12/29 03:06:23;;;;;;;3.77;1.30;;;9.40;99.90;;;;;;6121274;23;20415;-60
2022/12/29 03:08:56;;;;;;;2.37;1.60;;;9.50;99.90;;;;;;6122078;23;20410;-58
2022/12/29 03:17:21;;;;;;;2.33;1.33;;;9.60;99.90;;;;;;6113102;23;20427;-55
2022/12/29 03:19:52;;;;;;;2.10;1.30;;;9.70;99.90;;;;;;6120672;23;20388;-58
2022/12/29 03:22:31;;;;;;;1.80;1.27;;;9.70;99.90;;;;;;6120571;23;20455;-59
2022/12/29 03:25:04;;;;;;;1.97;1.50;;;9.70;99.90;;;;;;6120534;23;20392;-57
2022/12/29 03:27:36;;;;;;;3.00;1.80;;;9.70;99.90;;;;;;6121694;23;20451;-58
2022/12/29 03:30:05;;;;;;;2.00;1.03;;;9.80;99.90;;;;;;6122221;23;20391;-51
2022/12/29 03:32:36;;;;;;;1.43;1.10;;;9.80;99.90;;;;;;6122738;23;20889;-51
2022/12/29 03:35:08;;;;;;;2.57;1.60;;;9.80;99.90;;;;;;6122928;23;20403;-56
2022/12/29 03:37:38;;;;;;;1.57;1.30;;;9.90;99.90;;;;;;6121559;23;20423;-57
2022/12/29 03:40:07;;;;;;;1.30;1.13;;;9.90;99.90;;;;;;6122015;23;20411;-57
2022/12/29 03:42:39;;;;;;;2.20;1.43;;;9.90;99.90;;;;;;6122230;23;20427;-57
2022/12/29 03:45:08;;;;;;;5.10;1.47;;;9.90;99.90;;;;;;6123205;23;20372;-60
2022/12/29 03:47:35;;;;;;;3.07;1.27;;;9.90;99.90;;;;;;6124162;23;20447;-62
2022/12/29 03:50:02;;;;;;;1.20;1.10;;;9.90;99.90;;;;;;6124844;23;20411;-66
2022/12/29 03:52:33;;;;;;;1.70;1.40;;;9.90;99.90;;;;;;6125167;23;20420;-57
2022/12/29 03:54:59;;;;;;;1.63;1.40;;;10.00;99.90;;;;;;6125355;23;20395;-60
2022/12/29 03:57:26;;;;;;;2.07;1.63;;;10.00;99.90;;;;;;6124499;23;20423;-62
2022/12/29 03:59:53;;;;;;;2.93;1.43;;;10.00;99.90;;;;;;6122295;23;20388;-58
2022/12/29 04:02:20;;;;;;;2.33;1.10;;;10.00;99.90;;;;;;6121880;23;20427;-59
2022/12/29 04:04:47;;;;;;;1.77;1.50;;;10.00;99.90;;;;;;6121831;23;20392;-61
2022/12/29 04:07:14;;;;;;;2.13;1.40;;;10.10;99.90;;;;;;6121150;23;20454;-59
2022/12/29 04:09:42;;;;;;;3.33;1.60;;;10.10;99.90;;;;;;6122001;23;20398;-58
2022/12/29 04:12:09;;;;;;;2.40;1.60;;;10.10;99.90;;;;;;6121269;23;20400;-61
2022/12/29 04:14:36;;;;;;;1.40;1.30;;;10.10;99.90;;;;;;6121347;23;20423;-60
2022/12/29 04:17:03;;;;;;;3.17;1.50;;;10.10;99.90;;;;;;6121154;23;20392;-58
2022/12/29 04:19:30;;;;;;;1.30;1.20;;;10.10;99.90;;;;;;6120232;23;20411;-57
2022/12/29 04:21:58;;;;;;;1.60;1.20;;;10.10;99.90;;;;;;6121317;23;20419;-60
2022/12/29 04:24:25;;;;;;;1.33;1.23;;;10.10;99.90;;;;;;6121605;23;20466;-58
2022/12/29 04:26:54;;;;;;;2.67;1.60;;;10.10;99.90;;;;;;6120717;23;20466;-60
2022/12/29 04:29:21;;;;;;;1.50;1.20;;;10.10;99.90;;;;;;6120883;23;20703;-58
2022/12/29 04:31:48;;;;;;;2.30;1.70;;;10.10;99.90;;;;;;6120744;23;20407;-60
2022/12/29 04:34:15;;;;;;;1.63;1.37;;;10.10;99.90;;;;;;6121193;23;20407;-58
2022/12/29 04:36:42;;;;;;;1.40;1.30;;;10.20;99.90;;;;;;6120382;23;20415;-60
2022/12/29 04:39:09;;;;;;;1.43;1.10;;;10.20;99.90;;;;;;6120996;23;20427;-61
2022/12/29 04:41:36;;;;;;;1.90;1.40;;;10.20;99.90;;;;;;6121440;23;20431;-59
2022/12/29 04:44:04;;;;;;;1.40;1.30;;;10.20;99.90;;;;;;6120603;23;20442;-60
2022/12/29 04:46:31;;;;;;;1.47;1.23;;;10.20;99.90;;;;;;6121101;23;20446;-59
2022/12/29 04:49:00;;;;;;;1.50;1.20;;;10.20;99.90;;;;;;6121680;23;20472;-59
2022/12/29 04:51:27;;;;;;;1.90;1.27;;;10.20;99.90;;;;;;6120651;23;20391;-57
2022/12/29 04:54:00;;;;;;;2.20;1.23;;;10.20;99.90;;;;;;6120745;23;20439;-57
2022/12/29 04:56:27;;;;;;;1.23;1.13;;;10.20;99.90;;;;;;6121340;23;20384;-59
2022/12/29 04:58:53;;;;;;;1.50;1.40;;;10.20;99.90;;;;;;6120776;23;20431;-61
2022/12/29 05:01:22;;;;;;;1.50;1.30;;;10.20;99.90;;;;;;6121402;23;20665;-59
2022/12/29 05:03:50;;;;;;;1.90;1.43;;;10.20;99.90;;;;;;6120398;23;20427;-62
2022/12/29 05:06:17;;;;;;;2.13;1.53;;;10.20;99.90;;;;;;6120011;23;20455;-60
2022/12/29 05:08:44;;;;;;;1.10;0.77;;;10.20;99.90;;;;;;6120053;23;20427;-58
2022/12/29 05:11:11;;;;;;;1.73;1.40;;;10.30;99.90;;;;;;6120821;23;20411;-59
2022/12/29 05:13:38;;;;;;;1.97;1.00;;;10.30;99.90;;;;;;6119625;23;20435;-61
2022/12/29 05:16:05;;;;;;;1.50;1.30;;;10.30;99.90;;;;;;6120158;23;20416;-58
2022/12/29 05:18:34;;;;;;;1.40;1.30;;;10.30;99.90;;;;;;6119358;23;20446;-58
2022/12/29 05:21:00;;;;;;;2.40;1.20;;;10.40;99.90;;;;;;6121766;23;20403;-55
2022/12/29 05:23:27;;;;;;;2.03;1.57;;;10.40;99.90;;;;;;6121676;23;20415;-57
2022/12/29 05:25:55;;;;;;;1.40;1.17;;;10.40;99.90;;;;;;6121886;23;20399;-61
2022/12/29 05:28:22;;;;;;;1.77;1.57;;;10.40;99.90;;;;;;6122541;23;20431;-61
2022/12/29 05:30:49;;;;;;;2.83;1.50;;;10.50;99.90;;;;;;6120671;23;20388;-59
2022/12/29 05:33:21;;;;;;;1.40;1.30;;;10.50;99.90;;;;;;6120261;23;20498;-59
2022/12/29 05:35:49;;;;;;;8.40;1.27;;;10.50;99.90;;;;;;6120211;23;20396;-63
2022/12/29 05:38:16;;;;;;;1.60;1.30;;;10.50;99.90;;;;;;6120754;23;20404;-58
2022/12/29 05:40:44;;;;;;;3.27;1.83;;;10.50;99.90;;;;;;6120672;23;20407;-60
2022/12/29 05:43:11;;;;;;;2.60;1.63;;;10.50;99.90;;;;;;6120841;23;20439;-57
2022/12/29 05:45:37;;;;;;;2.20;1.03;;;10.50;99.90;;;;;;6120547;23;20411;-58
2022/12/29 05:48:05;;;;;;;2.43;1.30;;;10.60;99.90;;;;;;6120729;23;20448;-57
2022/12/29 05:50:32;;;;;;;2.10;1.30;;;10.60;99.90;;;;;;6120771;23;20423;-58
2022/12/29 05:53:00;;;;;;;1.60;1.10;;;10.60;99.90;;;;;;6121074;23;20407;-58
2022/12/29 05:55:27;;;;;;;2.20;1.50;;;10.70;99.90;;;;;;6120213;23;20439;-59
2022/12/29 05:57:54;;;;;;;2.00;1.40;;;10.60;99.90;;;;;;6120216;23;20399;-60
2022/12/29 06:00:21;;;;;;;1.83;1.57;;;10.70;99.90;;;;;;6120322;23;20435;-60
2022/12/29 06:02:48;;;;;;;1.50;1.30;;;10.70;99.90;;;;;;6120532;23;20416;-58
2022/12/29 06:05:22;;;;;;;5.30;2.00;;;10.80;99.90;;;;;;6121378;23;20744;-59
2022/12/29 06:07:49;;;;;;;1.40;1.20;;;10.80;99.90;;;;;;6120454;23;20438;-59
2022/12/29 06:10:18;;;;;;;1.80;1.40;;;10.90;99.90;;;;;;6121429;23;20436;-58
2022/12/29 06:12:48;;;;;;;2.53;1.60;;;10.90;99.90;;;;;;6120869;23;20398;-58
2022/12/29 06:15:15;;;;;;;3.10;1.50;;;10.90;99.90;;;;;;6121048;23;20435;-60
2022/12/29 06:17:42;;;;;;;2.00;1.40;;;10.90;99.90;;;;;;6121459;23;20411;-59
2022/12/29 06:20:10;;;;;;;2.50;1.50;;;10.90;99.90;;;;;;6121507;23;20439;-57
2022/12/29 06:22:38;;;;;;;2.00;1.50;;;11.00;99.90;;;;;;6122368;23;20399;-61
2022/12/29 06:25:06;;;;;;;2.83;1.20;;;11.00;99.90;;;;;;6122308;23;20415;-58
2022/12/29 06:27:34;;;;;;;4.30;1.30;;;11.00;99.90;;;;;;6122363;23;20481;-59
2022/12/29 06:30:01;;;;;;;1.43;1.10;;;11.00;99.90;;;;;;6121463;23;20428;-57
2022/12/29 06:32:27;;;;;;;2.13;1.40;;;11.00;99.90;;;;;;6121326;23;20430;-57
2022/12/29 06:34:54;;;;;;;1.30;1.00;;;11.10;99.90;;;;;;6122013;23;20423;-58
2022/12/29 06:37:21;;;;;;;2.13;1.57;;;11.10;99.90;;;;;;6121544;23;20392;-64
2022/12/29 06:39:48;;;;;;;1.70;1.50;;;11.10;99.90;;;;;;6121304;23;20414;-60
2022/12/29 06:42:15;;;;;;;1.30;1.00;;;11.00;99.90;;;;;;6122371;23;20392;-61
2022/12/29 06:44:43;;;;;;;2.33;1.30;;;11.00;99.90;;;;;;6122091;23;20415;-58
2022/12/29 06:47:13;;;;;;;1.40;1.27;;;11.00;99.90;;;;;;6122158;23;20427;-58
2022/12/29 06:49:40;;;;;;;1.30;1.10;;;11.10;99.90;;;;;;6121247;23;20410;-59
2022/12/29 06:52:07;;;;;;;1.83;1.33;;;11.00;99.90;;;;;;6118257;23;20392;-60
2022/12/29 06:54:34;;;;;;;1.70;1.50;;;11.00;99.90;;;;;;6114677;23;20403;-61
2022/12/29 06:57:01;;;;;;;1.83;1.57;;;11.00;99.90;;;;;;6121281;23;20472;-59
2022/12/29 06:59:28;;;;;;;2.40;1.40;;;11.10;99.90;;;;;;6120565;23;20428;-60
2022/12/29 07:01:56;;;;;;;1.70;1.53;;;11.10;99.90;;;;;;6122493;23;20418;-62
2022/12/29 07:04:23;;;;;;;4.10;1.50;;;11.10;99.90;;;;;;6121959;23;20407;-58
2022/12/29 07:06:50;;;;;;;1.40;1.30;;;11.10;99.90;;;;;;6121550;23;20480;-60
2022/12/29 07:09:17;;;;;;;2.00;1.40;;;11.10;99.90;;;;;;6121618;23;20422;-59
2022/12/29 07:11:44;;;;;;;1.80;1.43;;;11.10;99.90;;;;;;6121700;23;20408;-58
2022/12/29 07:14:12;;;;;;;1.30;1.20;;;11.00;99.90;;;;;;6122499;23;20407;-56
2022/12/29 07:16:39;;;;;;;1.60;1.30;;;11.00;99.90;;;;;;6122191;23;20423;-60
2022/12/29 07:19:10;;;;;;;3.20;1.10;;;11.00;99.90;;;;;;6122345;23;20410;-60
2022/12/29 07:21:37;;;;;;;1.50;1.40;;;11.00;99.90;;;;;;6122463;23;20419;-60
2022/12/29 07:24:04;;;;;;;1.60;1.40;;;10.90;99.90;;;;;;6121531;23;20387;-60
2022/12/29 07:26:31;;;;;;;1.23;1.13;;;10.90;99.90;;;;;;6122043;23;20415;-61
2022/12/29 07:28:58;;;;;;;2.57;1.20;;;10.90;99.90;;;;;;6122238;23;20759;-60
2022/12/29 07:31:25;;;;;;;1.80;1.70;;;10.90;99.90;;;;;;6121758;23;20431;-59
2022/12/29 07:33:52;;;;;;;3.83;2.27;;;10.90;99.90;;;;;;6122283;23;20391;-59
2022/12/29 07:36:20;;;;;;;5.47;1.80;;;10.90;99.90;;;;;;6122144;23;20711;-56
2022/12/29 07:38:48;;;;;;;2.10;1.70;;;10.90;99.90;;;;;;6121808;23;20414;-59
2022/12/29 07:41:15;;;;;;;1.77;1.43;;;10.90;99.90;;;;;;6122601;23;20439;-59
2022/12/29 07:43:42;;;;;;;2.40;1.27;;;10.90;99.90;;;;;;6123853;23;20403;-57
2022/12/29 07:46:10;;;;;;;1.90;0.90;;;10.90;99.90;;;;;;6123443;23;20431;-58
2022/12/29 07:48:37;;;;;;;1.93;1.10;;;10.90;99.90;;;;;;6123513;23;20498;-58
2022/12/29 07:51:04;;;;;;;1.30;0.80;;;11.00;99.90;;;;;;6122281;23;20439;-57
2022/12/29 07:53:32;;;;;;;2.53;1.30;;;11.00;99.90;;;;;;6122553;23;20371;-58
2022/12/29 07:55:59;;;;;;;1.43;1.17;;;11.10;99.90;;;;;;6122508;23;20404;-58
2022/12/29 07:58:27;;;;;;;2.10;1.20;;;11.10;99.90;;;;;;6122577;23;20372;-58
2022/12/29 08:00:54;;;;;;;1.60;1.17;;;11.10;99.90;;;;;;6122229;23;20930;-57
2022/12/29 08:03:21;;;;;;;1.77;1.20;;;11.20;99.90;;;;;;6112495;23;20387;-56
2022/12/29 08:05:48;;;;;;;1.40;1.30;;;11.20;99.90;;;;;;6121853;23;20414;-56
2022/12/29 08:08:15;;;;;;;2.00;1.33;;;11.20;99.90;;;;;;6121566;23;20894;-56
2022/12/29 08:10:45;;;;;;;4.10;1.10;;;11.20;99.90;;;;;;6121041;23;20418;-59
2022/12/29 08:13:13;;;;;;;1.03;0.90;;;11.20;99.90;;;;;;6121176;23;20420;-59
2022/12/29 08:15:40;;;;;;;1.53;1.17;;;11.20;99.90;;;;;;6121873;23;20415;-55
2022/12/29 08:18:07;;;;;;;1.40;1.00;;;11.20;99.90;;;;;;6121026;23;20404;-57
2022/12/29 08:20:34;;;;;;;1.90;1.30;;;11.20;99.90;;;;;;6121870;23;20431;-57
2022/12/29 08:23:01;;;;;;;2.93;1.53;;;11.20;99.90;;;;;;6121374;23;20423;-59
2022/12/29 08:25:28;;;;;;;7.30;1.30;;;11.20;99.90;;;;;;6121887;23;20392;-56
2022/12/29 08:27:56;;;;;;;3.20;1.67;;;11.20;99.90;;;;;;6120863;23;20443;-54
2022/12/29 08:30:23;;;;;;;4.73;1.20;;;11.20;99.90;;;;;;6121768;23;20403;-59
2022/12/29 08:32:50;;;;;;;10.80;1.47;;;11.30;99.90;;;;;;6121521;23;20813;-58
2022/12/29 08:35:17;;;;;;;2.27;1.30;;;11.30;99.90;;;;;;6121959;23;20400;-57
2022/12/29 08:37:44;;;;;;;2.33;1.57;;;11.30;99.90;;;;;;6122311;23;20432;-59
2022/12/29 08:40:11;;;;;;;1.80;1.20;;;11.30;99.90;;;;;;6115241;23;20392;-65
2022/12/29 08:42:38;;;;;;;2.40;1.13;;;11.20;99.90;;;;;;6122645;23;20431;-63
2022/12/29 08:45:08;;;;;;;2.50;1.23;;;11.30;99.90;;;;;;6123509;23;20388;-55
2022/12/29 08:47:36;;;;;;;1.60;1.17;;;11.20;99.90;;;;;;6122046;23;20447;-61
2022/12/29 08:50:03;;;;;;;3.33;1.27;;;11.20;99.90;;;;;;6121672;23;20408;-58
2022/12/29 08:52:30;;;;;;;1.83;1.30;;;11.20;99.90;;;;;;6121319;23;20460;-60
2022/12/29 08:54:57;;;;;;;1.33;1.23;;;11.30;99.90;;;;;;6121176;23;20403;-57
2022/12/29 08:57:24;;;;;;;1.30;1.03;;;11.20;99.90;;;;;;6121388;23;20411;-63
2022/12/29 08:59:51;;;;;;;2.60;1.27;;;11.20;99.90;;;;;;6115732;23;20388;-58
2022/12/29 09:02:19;;;;;;;1.80;1.53;;;11.20;99.90;;;;;;6119287;23;20439;-57
2022/12/29 09:04:46;;;;;;;1.43;1.30;;;11.30;99.90;;;;;;6121496;23;20392;-59
2022/12/29 09:07:13;;;;;;;2.73;1.07;;;11.30;99.90;;;;;;6120765;23;20451;-63
2022/12/29 09:09:40;;;;;;;1.60;0.90;;;11.30;99.90;;;;;;6121688;23;20384;-59
2022/12/29 09:12:07;;;;;;;2.43;1.30;;;11.40;99.90;;;;;;6113163;23;20439;-58
2022/12/29 09:14:34;;;;;;;1.80;1.47;;;11.50;99.90;;;;;;6121974;23;20388;-59
2022/12/29 09:19:46;;;;;;;2.63;1.10;;;11.50;99.90;;;;;;6121224;23;20395;-58
2022/12/29 09:22:13;;;;;;;1.43;1.30;;;11.50;99.90;;;;;;6121072;23;20396;-53
2022/12/29 09:24:40;;;;;;;1.50;1.30;;;11.50;99.90;;;;;;6121518;23;20402;-57
2022/12/29 09:27:07;;;;;;;1.83;1.00;;;11.60;99.90;;;;;;6122736;23;20387;-57
2022/12/29 09:29:34;;;;;;;1.50;1.10;;;11.60;99.90;;;;;;6122435;23;20443;-53
2022/12/29 09:32:01;;;;;;;1.57;1.00;;;11.60;99.90;;;;;;6122340;23;20411;-56
2022/12/29 09:34:28;;;;;;;2.33;1.10;;;11.60;99.90;;;;;;6121870;23;20479;-58
2022/12/29 09:36:57;;;;;;;2.30;1.40;;;11.70;99.90;;;;;;6121857;23;20391;-57
2022/12/29 09:39:24;;;;;;;2.80;1.90;;;11.70;99.90;;;;;;6122227;23;20427;-60
2022/12/29 09:41:59;;;;;;;1.80;1.13;;;11.70;99.90;;;;;;6122465;23;20404;-59
2022/12/29 09:44:35;;;;;;;1.53;0.97;;;11.80;99.90;;;;;;6121963;23;20438;-63
2022/12/29 09:47:02;;;;;;;1.40;1.30;;;11.80;99.90;;;;;;6122927;23;20387;-57
2022/12/29 09:49:39;;;;;;;1.60;1.13;;;11.80;99.90;;;;;;6122817;23;20459;-61
2022/12/29 09:52:20;;;;;;;1.30;1.20;;;11.80;99.90;;;;;;6122954;23;20427;-60
2022/12/29 09:54:53;;;;;;;3.17;1.40;;;11.90;99.90;;;;;;6121203;23;20395;-59
2022/12/29 09:57:25;;;;;;;2.37;1.47;;;11.90;99.90;;;;;;6121163;23;20388;-59
2022/12/29 09:59:56;;;;;;;2.70;1.17;;;12.00;99.90;;;;;;6121057;23;20388;-58
2022/12/29 10:02:38;;;;;;;2.13;1.33;;;12.10;99.90;;;;;;6120781;23;20388;-60
2022/12/29 10:05:14;;;;;;;2.80;1.97;;;12.10;99.90;;;;;;6113631;23;20674;-59
2022/12/29 10:07:51;;;;;;;1.30;1.10;;;12.20;99.90;;;;;;6120771;23;20391;-60
2022/12/29 10:10:30;;;;;;;2.67;1.40;;;12.20;99.90;;;;;;6119687;23;20384;-59
2022/12/29 10:13:17;;;;;;;2.80;1.20;;;12.30;99.90;;;;;;6120544;23;20386;-58
2022/12/29 10:15:56;;;;;;;2.10;1.30;;;12.40;99.90;;;;;;6120210;23;20419;-58
2022/12/29 10:18:59;;;;;;;1.30;1.20;;;12.50;99.90;;;;;;6119426;23;20388;-57
2022/12/29 10:21:40;;;;;;;2.10;1.30;;;12.50;99.90;;;;;;6072128;23;20410;-59
2022/12/29 10:24:13;;;;;;;1.30;1.20;;;12.80;99.90;;;;;;6119643;23;20423;-58
2022/12/29 10:26:42;;;;;;;1.73;1.10;;;13.00;99.90;;;;;;6120382;23;20387;-58
2022/12/29 10:29:16;;;;;;;1.23;1.07;;;13.20;99.90;;;;;;6119755;23;20462;-57
2022/12/29 10:31:46;;;;;;;1.60;1.30;;;13.30;99.90;;;;;;6120624;23;20425;-57
2022/12/29 10:34:21;;;;;;;2.07;1.20;;;13.30;99.90;;;;;;6120172;23;20432;-58
2022/12/29 10:36:51;;;;;;;2.43;1.23;;;13.20;99.90;;;;;;6112380;23;20401;-63
2022/12/29 10:39:24;;;;;;;1.13;1.00;;;13.20;99.90;;;;;;6116019;23;20431;-59
2022/12/29 10:41:56;;;;;;;1.30;1.10;;;13.20;99.90;;;;;;6118652;23;20390;-59
2022/12/29 10:44:28;;;;;;;2.90;1.27;;;13.20;99.90;;;;;;6120940;23;20411;-56
2022/12/29 10:47:00;;;;;;;1.70;1.37;;;13.10;99.90;;;;;;6120580;23;20380;-58
2022/12/29 10:49:29;;;;;;;1.40;1.00;;;13.10;99.90;;;;;;6120737;23;20439;-59
2022/12/29 10:52:01;;;;;;;1.83;1.20;;;13.10;99.90;;;;;;6121425;23;20403;-62
2022/12/29 10:54:34;;;;;;;1.53;1.00;;;13.10;99.90;;;;;;6122232;23;20507;-59
2022/12/29 10:57:04;;;;;;;1.60;1.00;;;13.10;99.90;;;;;;6122656;23;20396;-64
2022/12/29 10:59:33;;;;;;;4.60;1.23;;;13.00;99.90;;;;;;6122873;23;20419;-64
2022/12/29 11:02:15;;;;;;;3.30;1.00;;;13.10;99.90;;;;;;6123269;23;20496;-60
2022/12/29 11:04:54;;;;;;;2.83;1.00;;;13.10;99.90;;;;;;6122042;23;20416;-60
2022/12/29 11:07:22;;;;;;;1.33;1.23;;;13.00;99.90;;;;;;6121151;23;20376;-59
2022/12/29 11:09:50;;;;;;;1.50;1.40;;;13.10;99.90;;;;;;6119640;23;20451;-58
2022/12/29 11:12:24;;;;;;;1.20;1.07;;;13.00;99.90;;;;;;6120406;23;20395;-60
2022/12/29 11:15:11;;;;;;;2.37;1.77;;;12.90;99.90;;;;;;6120785;23;20424;-59
2022/12/29 11:17:45;;;;;;;4.60;1.80;;;12.90;99.90;;;;;;6120979;23;20391;-59
2022/12/29 11:20:37;;;;;;;1.63;1.03;;;12.90;99.90;;;;;;6120213;23;20436;-59
2022/12/29 11:23:24;;;;;;;1.70;1.00;;;12.90;99.90;;;;;;6092721;23;20408;-59
2022/12/29 11:26:07;;;;;;;1.57;1.00;;;12.90;99.90;;;;;;6119495;23;20427;-56
2022/12/29 11:28:35;;;;;;;2.83;1.47;;;12.90;99.90;;;;;;6120542;23;20415;-58
2022/12/29 11:31:03;;;;;;;2.70;1.53;;;12.80;99.90;;;;;;6119605;23;20428;-59
2022/12/29 11:33:30;;;;;;;1.87;1.50;;;12.80;99.90;;;;;;6120625;23;20404;-59
2022/12/29 11:35:59;;;;;;;1.23;1.07;;;12.80;99.90;;;;;;6120743;23;20423;-60
2022/12/29 11:38:30;;;;;;;1.40;1.30;;;12.70;99.90;;;;;;6121236;23;20400;-58
2022/12/29 11:40:59;;;;;;;1.43;1.20;;;12.70;99.90;;;;;;6120844;23;20435;-56
2022/12/29 11:43:33;;;;;;;3.20;0.90;;;12.60;99.90;;;;;;6120629;23;20431;-59
2022/12/29 11:46:03;;;;;;;1.30;1.10;;;12.50;99.90;;;;;;6119722;23;20428;-59
2022/12/29 11:48:34;;;;;;;2.23;1.30;;;12.40;99.90;;;;;;6121743;23;20463;-57
2022/12/29 11:51:01;;;;;;;1.53;1.00;;;12.40;99.90;;;;;;6121584;23;20442;-58
2022/12/29 11:53:34;;;;;;;1.90;1.20;;;12.30;99.90;;;;;;6121937;23;20480;-58
2022/12/29 11:56:06;;;;;;;1.20;0.97;;;12.30;99.90;;;;;;6121556;23;20500;-56
2022/12/29 11:58:34;;;;;;;1.07;0.80;;;12.20;99.90;;;;;;6122075;23;20392;-57
2022/12/29 12:01:05;;;;;;;1.20;0.87;;;12.20;99.90;;;;;;6121445;23;20415;-58
2022/12/29 12:03:36;;;;;;;1.40;1.00;;;12.20;99.90;;;;;;6121807;23;20395;-58
2022/12/29 12:06:07;;;;;;;1.20;0.80;;;12.20;99.90;;;;;;6121575;23;20431;-59
2022/12/29 12:08:37;;;;;;;3.50;1.30;;;12.10;99.90;;;;;;6121612;23;20434;-56
2022/12/29 12:11:10;;;;;;;4.60;1.10;;;12.00;99.90;;;;;;6121618;23;20435;-59
2022/12/29 12:13:47;;;;;;;1.10;0.90;;;11.90;99.90;;;;;;6121499;23;20388;-58
2022/12/29 12:16:17;;;;;;;0.90;0.70;;;11.70;99.90;;;;;;6121466;23;20471;-58
2022/12/29 12:18:49;;;;;;;0.90;0.80;;;11.50;99.90;;;;;;6121904;23;20391;-59
2022/12/29 12:21:24;;;;;;;1.80;0.80;;;11.30;99.90;;;;;;6121994;23;20435;-55
2022/12/29 12:24:32;;;;;;;1.10;0.80;;;11.30;99.90;;;;;;6121684;23;20384;-56
2022/12/29 12:27:03;;;;;;;3.17;0.80;;;11.20;99.90;;;;;;6065617;23;20463;-59
2022/12/29 12:29:38;;;;;;;1.67;1.20;;;11.10;99.90;;;;;;6121939;23;20431;-57
2022/12/29 12:32:14;;;;;;;1.00;0.80;;;11.10;99.90;;;;;;6121549;23;20419;-62
2022/12/29 12:34:45;;;;;;;1.40;0.97;;;11.00;99.90;;;;;;6121982;23;20387;-56
2022/12/29 12:37:26;;;;;;;3.10;0.90;;;11.00;99.90;;;;;;6121692;23;20377;-59
2022/12/29 12:40:18;;;;;;;1.70;0.90;;;11.00;99.90;;;;;;6121326;23;20388;-63
2022/12/29 12:42:56;;;;;;;1.27;1.10;;;11.00;99.90;;;;;;6121311;23;20683;-59
2022/12/29 12:45:43;;;;;;;1.53;1.00;;;11.00;99.90;;;;;;6121519;23;20392;-56
2022/12/29 12:48:28;;;;;;;1.50;1.20;;;11.00;99.90;;;;;;6121509;23;20384;-58
2022/12/29 12:51:03;;;;;;;1.00;0.70;;;11.00;99.90;;;;;;6121900;23;20407;-60
2022/12/29 12:53:45;;;;;;;2.50;1.83;;;11.00;99.90;;;;;;6121874;23;20395;-59
2022/12/29 12:56:38;;;;;;;1.27;1.00;;;11.00;99.90;;;;;;6121850;23;20475;-59
2022/12/29 12:59:17;;;;;;;2.30;1.00;;;10.90;99.90;;;;;;6108674;23;20430;-60
2022/12/29 13:01:56;;;;;;;1.07;0.80;;;10.90;99.90;;;;;;6122172;23;20435;-59
2022/12/29 13:04:46;;;;;;;1.10;0.87;;;10.80;99.90;;;;;;6122524;23;20372;-58
2022/12/29 13:07:25;;;;;;;2.90;1.20;;;10.80;99.90;;;;;;6121334;23;20558;-60
2022/12/29 13:10:23;;;;;;;1.00;0.80;;;10.80;99.90;;;;;;6121826;23;20423;-58
2022/12/29 13:12:58;;;;;;;1.50;0.87;;;10.80;99.90;;;;;;6121423;23;20438;-58
2022/12/29 13:15:41;;;;;;;3.07;1.83;;;10.80;99.90;;;;;;6121629;23;20380;-57
2022/12/29 13:18:22;;;;;;;2.13;1.37;;;10.80;99.90;;;;;;6121152;23;20423;-59
2022/12/29 13:20:54;;;;;;;1.00;0.90;;;10.70;99.90;;;;;;6112003;23;20376;-61
2022/12/29 13:23:28;;;;;;;2.07;1.10;;;10.80;99.90;;;;;;6093203;23;20567;-61
2022/12/29 13:26:03;;;;;;;1.03;0.93;;;10.80;99.90;;;;;;6092855;23;20397;-60
2022/12/29 13:28:35;;;;;;;2.03;0.97;;;10.80;99.90;;;;;;6093108;23;20420;-59
2022/12/29 13:31:10;;;;;;;2.10;1.00;;;10.80;99.90;;;;;;6092262;23;20396;-60
2022/12/29 13:33:50;;;;;;;2.57;1.10;;;10.90;99.90;;;;;;6093763;23;20452;-59
2022/12/29 13:36:24;;;;;;;1.67;1.10;;;10.80;99.90;;;;;;6092069;23;20426;-60
2022/12/29 13:38:58;;;;;;;1.53;0.80;;;10.90;99.90;;;;;;6092546;23;20385;-58
2022/12/29 13:41:31;;;;;;;3.77;1.00;;;10.90;99.90;;;;;;6093507;23;20454;-60
2022/12/29 13:43:59;;;;;;;1.27;1.00;;;10.90;99.90;;;;;;6093734;23;20409;-66
2022/12/29 13:46:35;;;;;;;2.47;1.30;;;10.90;99.90;;;;;;6094509;23;20405;-60